createdAt,value
2022-10-16T00:01:34.818Z,2.20
2022-10-16T00:04:01.736Z,2.17
2022-10-16T00:06:30.242Z,2.15
2022-10-16T00:08:57.061Z,2.12
2022-10-16T00:11:28.919Z,2.11
2022-10-16T00:13:57.698Z,2.11
2022-10-16T00:16:24.394Z,2.11
2022-10-16T00:18:51.007Z,2.10
2022-10-16T00:21:25.640Z,2.08
2022-10-16T00:23:53.330Z,2.07
2022-10-16T00:26:20.137Z,2.04
2022-10-16T00:28:48.429Z,2.00
2022-10-16T00:31:15.149Z,1.95
2022-10-16T00:33:41.862Z,1.92
2022-10-16T00:36:10.144Z,1.88
2022-10-16T00:38:38.706Z,1.85
2022-10-16T00:41:06.634Z,1.84
2022-10-16T00:43:39.758Z,1.84
2022-10-16T00:46:31.108Z,1.83
2022-10-16T00:49:06.210Z,1.82
2022-10-16T00:51:50.336Z,1.80
2022-10-16T00:54:18.054Z,1.77
2022-10-16T00:56:44.849Z,1.70
2022-10-16T00:59:20.277Z,1.64
2022-10-16T01:01:46.931Z,1.61
2022-10-16T01:04:13.588Z,1.59
2022-10-16T01:07:12.512Z,1.57
2022-10-16T01:09:48.088Z,1.57
2022-10-16T01:12:38.525Z,1.56
2022-10-16T01:15:27.678Z,1.58
2022-10-16T01:18:12.180Z,1.57
2022-10-16T01:21:05.528Z,1.56
2022-10-16T01:24:09.924Z,1.55
2022-10-16T01:26:44.943Z,1.50
2022-10-16T01:29:18.134Z,1.44
2022-10-16T01:31:47.656Z,1.40
2022-10-16T01:34:16.632Z,1.37
2022-10-16T01:36:46.841Z,1.35
2022-10-16T01:39:13.535Z,1.35
2022-10-16T01:41:46.061Z,1.35
2022-10-16T01:44:20.277Z,1.36
2022-10-16T01:46:47.793Z,1.37
2022-10-16T01:49:14.515Z,1.35
2022-10-16T01:51:41.157Z,1.32
2022-10-16T01:54:08.351Z,1.30
2022-10-16T01:56:35.551Z,1.27
2022-10-16T01:59:05.068Z,1.23
2022-10-16T02:01:32.757Z,1.21
2022-10-16T02:04:02.173Z,1.21
2022-10-16T02:06:28.812Z,1.21
2022-10-16T02:08:55.469Z,1.22
2022-10-16T02:11:22.111Z,1.21
2022-10-16T02:13:59.596Z,1.22
2022-10-16T02:16:46.587Z,1.20
2022-10-16T02:19:13.909Z,1.20
2022-10-16T02:21:55.464Z,1.18
2022-10-16T02:24:35.276Z,1.16
2022-10-16T02:27:13.317Z,1.13
2022-10-16T02:29:41.900Z,1.11
2022-10-16T02:32:08.544Z,1.08
2022-10-16T02:34:35.195Z,1.08
2022-10-16T02:37:02.293Z,1.08
2022-10-16T02:39:29.371Z,1.07
2022-10-16T02:41:56.028Z,1.05
2022-10-16T02:44:22.681Z,1.03
2022-10-16T02:46:49.367Z,1.01
2022-10-16T02:49:16.367Z,0.99
2022-10-16T02:51:42.996Z,0.98
2022-10-16T02:54:09.672Z,0.99
2022-10-16T02:56:36.411Z,0.99
2022-10-16T02:59:03.035Z,0.99
2022-10-16T03:01:29.759Z,0.99
2022-10-16T03:03:56.409Z,0.97
2022-10-16T03:06:23.104Z,0.96
2022-10-16T03:08:49.764Z,0.95
2022-10-16T03:11:16.477Z,0.94
2022-10-16T03:13:43.157Z,0.93
2022-10-16T03:16:09.828Z,0.90
2022-10-16T03:18:36.507Z,0.90
2022-10-16T03:21:03.181Z,0.89
2022-10-16T03:25:57.670Z,0.89
2022-10-16T03:28:24.331Z,0.86
2022-10-16T03:30:51.178Z,0.83
2022-10-16T03:33:17.819Z,0.82
2022-10-16T03:35:44.459Z,0.81
2022-10-16T03:38:11.100Z,0.81
2022-10-16T03:40:37.759Z,0.80
2022-10-16T03:43:04.414Z,0.78
2022-10-16T03:45:31.086Z,0.77
2022-10-16T03:47:57.865Z,0.76
2022-10-16T03:50:24.557Z,0.72
2022-10-16T03:52:51.325Z,0.70
2022-10-16T03:55:18.157Z,0.68
2022-10-16T03:57:44.770Z,0.67
2022-10-16T04:00:12.288Z,0.66
2022-10-16T04:02:38.993Z,0.64
2022-10-16T04:05:05.938Z,0.59
2022-10-16T04:07:32.672Z,0.58
2022-10-16T04:10:00.168Z,0.60
2022-10-16T04:12:27.551Z,0.60
2022-10-16T04:14:54.220Z,0.62
2022-10-16T04:17:20.906Z,0.62
2022-10-16T04:19:47.526Z,0.61
2022-10-16T04:22:14.266Z,0.60
2022-10-16T04:24:41.123Z,0.58
2022-10-16T04:27:07.754Z,0.56
2022-10-16T04:29:34.475Z,0.57
2022-10-16T04:32:01.127Z,0.58
2022-10-16T04:34:27.753Z,0.58
2022-10-16T04:36:54.487Z,0.60
2022-10-16T04:39:21.189Z,0.63
2022-10-16T04:41:47.812Z,0.67
2022-10-16T04:44:14.460Z,0.70
2022-10-16T04:46:41.098Z,0.74
2022-10-16T04:49:07.828Z,0.78
2022-10-16T04:51:34.746Z,0.83
2022-10-16T04:54:01.428Z,0.94
2022-10-16T04:56:28.182Z,1.12
2022-10-16T04:58:54.858Z,1.52
2022-10-16T05:01:21.511Z,2.13
2022-10-16T05:03:48.178Z,2.76
2022-10-16T05:06:14.899Z,3.33
2022-10-16T05:08:41.600Z,3.83
2022-10-16T05:11:08.303Z,4.13
2022-10-16T05:13:35.058Z,4.40
2022-10-16T05:16:01.805Z,4.69
2022-10-16T05:18:28.465Z,4.85
2022-10-16T05:20:55.336Z,4.83
2022-10-16T05:23:22.041Z,4.71
2022-10-16T05:25:59.320Z,4.60
2022-10-16T05:28:27.011Z,4.51
2022-10-16T05:30:53.893Z,4.43
2022-10-16T05:33:21.808Z,4.36
2022-10-16T05:35:48.543Z,4.30
2022-10-16T05:38:15.236Z,4.25
2022-10-16T05:40:41.893Z,4.21
2022-10-16T05:43:08.581Z,4.34
2022-10-16T05:45:35.207Z,4.50
2022-10-16T05:48:01.862Z,4.59
2022-10-16T05:50:28.556Z,4.67
2022-10-16T05:52:55.347Z,4.72
2022-10-16T05:55:21.982Z,4.70
2022-10-16T05:57:48.749Z,4.67
2022-10-16T06:00:15.421Z,4.63
2022-10-16T06:02:42.109Z,4.60
2022-10-16T06:05:09.013Z,4.56
2022-10-16T06:07:36.542Z,4.53
2022-10-16T06:10:03.824Z,4.54
2022-10-16T06:12:30.528Z,4.58
2022-10-16T06:14:57.177Z,4.69
2022-10-16T06:17:23.980Z,4.84
2022-10-16T06:19:50.971Z,4.96
2022-10-16T06:22:17.635Z,5.07
2022-10-16T06:24:44.287Z,5.13
2022-10-16T06:27:11.109Z,5.13
2022-10-16T06:29:37.767Z,5.14
2022-10-16T06:32:04.514Z,5.22
2022-10-16T06:34:31.225Z,5.34
2022-10-16T06:36:57.869Z,5.46
2022-10-16T06:39:24.549Z,5.60
2022-10-16T06:41:51.507Z,5.90
2022-10-16T06:44:18.218Z,6.20
2022-10-16T06:46:44.844Z,6.41
2022-10-16T06:49:11.648Z,6.60
2022-10-16T06:51:43.241Z,6.84
2022-10-16T06:54:10.474Z,6.93
2022-10-16T06:56:37.153Z,6.87
2022-10-16T06:59:03.893Z,6.78
2022-10-16T07:01:33.508Z,6.64
2022-10-16T07:04:01.099Z,6.57
2022-10-16T07:06:28.070Z,6.57
2022-10-16T07:08:54.856Z,6.57
2022-10-16T07:11:23.252Z,6.60
2022-10-16T07:13:54.392Z,6.69
2022-10-16T07:16:27.804Z,6.73
2022-10-16T07:18:59.302Z,6.85
2022-10-16T07:21:27.697Z,7.03
2022-10-16T07:23:55.005Z,7.25
2022-10-16T07:26:22.119Z,7.50
2022-10-16T07:28:48.979Z,7.76
2022-10-16T07:31:16.297Z,8.03
2022-10-16T07:33:45.351Z,8.28
2022-10-16T07:36:16.319Z,8.54
2022-10-16T07:38:43.657Z,8.74
2022-10-16T07:41:13.012Z,8.91
2022-10-16T07:43:39.696Z,9.08
2022-10-16T07:46:06.757Z,9.26
2022-10-16T07:48:34.324Z,9.45
2022-10-16T07:51:01.789Z,9.62
2022-10-16T07:53:28.503Z,9.77
2022-10-16T07:56:13.615Z,9.87
2022-10-16T07:58:40.419Z,10.01
2022-10-16T08:01:08.997Z,10.14
2022-10-16T08:03:35.703Z,10.28
2022-10-16T08:06:02.657Z,10.42
2022-10-16T08:08:29.363Z,10.58
2022-10-16T08:10:56.067Z,10.77
2022-10-16T08:13:22.768Z,10.99
2022-10-16T08:15:49.468Z,11.16
2022-10-16T08:18:16.376Z,11.28
2022-10-16T08:20:43.562Z,11.42
2022-10-16T08:23:10.977Z,11.53
2022-10-16T08:25:38.319Z,11.66
2022-10-16T08:28:06.700Z,11.81
2022-10-16T08:30:33.432Z,12.00
2022-10-16T08:33:00.113Z,12.23
2022-10-16T08:35:26.776Z,12.40
2022-10-16T08:37:53.379Z,12.53
2022-10-16T08:43:12.261Z,12.48
2022-10-16T08:45:46.292Z,12.35
2022-10-16T08:48:21.388Z,12.37
2022-10-16T08:50:48.672Z,12.45
2022-10-16T08:53:21.993Z,12.57
2022-10-16T08:55:52.736Z,12.70
2022-10-16T08:58:20.123Z,12.76
2022-10-16T09:00:48.743Z,12.71
2022-10-16T09:03:23.384Z,12.62
2022-10-16T09:06:11.618Z,12.73
2022-10-16T09:09:01.526Z,12.86
2022-10-16T09:11:42.316Z,12.94
2022-10-16T09:14:20.130Z,13.04
2022-10-16T09:17:12.984Z,13.16
2022-10-16T09:19:44.217Z,13.34
2022-10-16T09:22:13.691Z,13.43
2022-10-16T09:24:40.392Z,13.48
2022-10-16T09:27:11.519Z,13.60
2022-10-16T09:29:38.152Z,13.74
2022-10-16T09:32:23.171Z,13.75
2022-10-16T09:34:51.925Z,13.70
2022-10-16T09:37:20.394Z,13.66
2022-10-16T09:39:47.824Z,13.65
2022-10-16T09:42:19.730Z,13.65
2022-10-16T09:44:50.886Z,13.57
2022-10-16T09:47:21.195Z,13.62
2022-10-16T09:49:55.148Z,13.73
2022-10-16T09:52:21.994Z,13.86
2022-10-16T09:54:55.900Z,13.78
2022-10-16T09:57:22.912Z,13.65
2022-10-16T09:59:57.036Z,13.58
2022-10-16T10:02:50.108Z,13.50
2022-10-16T10:05:22.787Z,13.34
2022-10-16T10:07:58.527Z,13.27
2022-10-16T10:10:30.169Z,13.28
2022-10-16T10:12:57.201Z,13.25
2022-10-16T10:15:25.022Z,13.23
2022-10-16T10:17:53.920Z,13.21
2022-10-16T10:20:28.740Z,13.20
2022-10-16T10:22:56.748Z,13.25
2022-10-16T10:27:18.151Z,13.31
2022-10-16T10:29:55.186Z,13.25
2022-10-16T10:32:43.849Z,13.19
2022-10-16T10:35:22.789Z,13.07
2022-10-16T10:38:13.958Z,13.01
2022-10-16T10:40:52.140Z,12.97
2022-10-16T10:43:28.327Z,12.96
2022-10-16T10:45:59.315Z,12.92
2022-10-16T10:48:35.320Z,12.94
2022-10-16T10:51:04.880Z,13.00
2022-10-16T10:53:48.790Z,13.03
2022-10-16T10:56:15.431Z,13.02
2022-10-16T10:58:51.521Z,12.96
2022-10-16T11:01:39.748Z,12.88
2022-10-16T11:04:12.252Z,12.77
2022-10-16T11:06:59.272Z,12.75
2022-10-16T11:09:28.491Z,12.72
2022-10-16T11:11:56.449Z,12.70
2022-10-16T11:14:29.528Z,12.77
2022-10-16T11:16:59.830Z,12.86
2022-10-16T11:19:30.089Z,12.90
2022-10-16T11:22:21.014Z,12.90
2022-10-16T11:25:36.145Z,12.88
2022-10-16T11:28:21.646Z,12.83
2022-10-16T11:30:51.744Z,12.81
2022-10-16T11:33:18.399Z,12.80
2022-10-16T11:35:56.594Z,12.82
2022-10-16T11:38:23.289Z,12.78
2022-10-16T11:40:49.932Z,12.70
2022-10-16T11:43:23.275Z,12.68
2022-10-16T11:45:52.598Z,12.76
2022-10-16T11:48:27.361Z,12.78
2022-10-16T11:50:55.472Z,12.80
2022-10-16T11:53:44.265Z,12.78
2022-10-16T11:56:16.868Z,12.76
2022-10-16T11:58:57.705Z,12.74
2022-10-16T12:01:34.825Z,12.76
2022-10-16T12:04:10.535Z,12.79
2022-10-16T12:06:43.415Z,12.80
2022-10-16T12:09:15.893Z,12.86
2022-10-16T12:11:42.727Z,12.94
2022-10-16T12:14:12.631Z,12.89
2022-10-16T12:17:03.140Z,12.83
2022-10-16T12:19:30.710Z,12.80
2022-10-16T12:21:58.886Z,12.85
2022-10-16T12:24:31.010Z,12.96
2022-10-16T12:26:57.763Z,13.03
2022-10-16T12:29:33.556Z,13.06
2022-10-16T12:32:00.299Z,13.09
2022-10-16T12:34:41.419Z,13.12
2022-10-16T12:37:28.056Z,13.09
2022-10-16T12:39:55.250Z,13.01
2022-10-16T12:42:28.400Z,12.99
2022-10-16T12:44:55.505Z,13.02
2022-10-16T12:47:24.072Z,12.99
2022-10-16T12:49:53.013Z,12.96
2022-10-16T12:52:38.552Z,12.95
2022-10-16T12:55:06.159Z,12.91
2022-10-16T12:57:39.955Z,12.88
2022-10-16T13:00:13.305Z,12.84
2022-10-16T13:02:49.168Z,12.79
2022-10-16T13:08:29.989Z,12.76
2022-10-16T13:11:11.986Z,12.69
2022-10-16T13:14:00.961Z,12.64
2022-10-16T13:16:49.670Z,12.65
2022-10-16T13:19:47.041Z,12.67
2022-10-16T13:22:31.019Z,12.67
2022-10-16T13:25:21.004Z,12.67
2022-10-16T13:27:53.547Z,12.64
2022-10-16T13:30:28.312Z,12.60
2022-10-16T13:33:18.188Z,12.55
2022-10-16T13:35:50.384Z,12.48
2022-10-16T13:38:21.827Z,12.43
2022-10-16T13:40:50.192Z,12.39
2022-10-16T13:43:19.012Z,12.37
2022-10-16T13:45:57.228Z,12.36
2022-10-16T13:48:24.149Z,12.36
2022-10-16T13:51:16.730Z,12.33
2022-10-16T13:53:43.549Z,12.31
2022-10-16T13:56:22.721Z,12.27
2022-10-16T13:59:06.211Z,12.21
2022-10-16T14:01:43.157Z,12.16
2022-10-16T14:04:11.284Z,12.09
2022-10-16T14:06:40.841Z,12.02
2022-10-16T14:09:27.792Z,11.95
2022-10-16T14:12:02.355Z,11.88
2022-10-16T14:14:47.683Z,11.80
2022-10-16T14:17:23.142Z,11.73
2022-10-16T14:19:54.744Z,11.68
2022-10-16T14:22:38.373Z,11.65
2022-10-16T14:25:20.475Z,11.63
2022-10-16T14:27:58.288Z,11.59
2022-10-16T14:30:25.146Z,11.54
2022-10-16T14:33:07.949Z,11.48
2022-10-16T14:35:36.572Z,11.44
2022-10-16T14:38:04.097Z,11.41
2022-10-16T14:40:32.703Z,11.36
2022-10-16T14:43:00.044Z,11.30
2022-10-16T14:45:29.072Z,11.24
2022-10-16T14:48:04.147Z,11.17
2022-10-16T14:50:31.193Z,11.09
2022-10-16T14:52:57.912Z,11.01
2022-10-16T14:57:59.621Z,10.83
2022-10-16T15:00:27.587Z,10.75
2022-10-16T15:02:54.235Z,10.66
2022-10-16T15:05:26.934Z,10.58
2022-10-16T15:07:55.844Z,10.46
2022-10-16T15:10:23.677Z,10.35
2022-10-16T15:12:50.649Z,10.24
2022-10-16T15:15:45.896Z,10.10
2022-10-16T15:18:12.701Z,9.95
2022-10-16T15:20:39.825Z,9.81
2022-10-16T15:23:11.892Z,9.68
2022-10-16T15:25:46.169Z,9.56
2022-10-16T15:28:13.584Z,9.46
2022-10-16T15:30:40.777Z,9.38
2022-10-16T15:33:15.081Z,9.28
2022-10-16T15:35:41.820Z,9.17
2022-10-16T15:38:13.048Z,9.04
2022-10-16T15:40:39.904Z,8.91
2022-10-16T15:43:06.965Z,8.78
2022-10-16T15:45:33.628Z,8.65
2022-10-16T15:48:00.317Z,8.51
2022-10-16T15:50:27.133Z,8.36
2022-10-16T15:52:53.778Z,8.19
2022-10-16T15:55:20.444Z,7.91
2022-10-16T15:57:47.142Z,7.73
2022-10-16T16:00:15.732Z,7.60
2022-10-16T16:02:43.263Z,7.50
2022-10-16T16:05:10.836Z,7.44
2022-10-16T16:07:38.127Z,7.38
2022-10-16T16:10:06.010Z,7.34
2022-10-16T16:12:33.117Z,7.28
2022-10-16T16:15:02.118Z,7.17
2022-10-16T16:17:33.025Z,7.06
2022-10-16T16:19:59.820Z,7.00
2022-10-16T16:22:26.970Z,6.95
2022-10-16T16:24:53.991Z,6.91
2022-10-16T16:27:26.146Z,6.88
2022-10-16T16:29:54.399Z,6.85
2022-10-16T16:32:21.171Z,6.80
2022-10-16T16:34:47.863Z,6.75
2022-10-16T16:37:14.612Z,6.71
2022-10-16T16:39:41.361Z,6.64
2022-10-16T16:42:08.486Z,6.55
2022-10-16T16:44:37.134Z,6.49
2022-10-16T16:47:04.675Z,6.42
2022-10-16T16:49:31.367Z,6.37
2022-10-16T16:51:58.197Z,6.34
2022-10-16T16:54:24.898Z,6.30
2022-10-16T16:56:51.681Z,6.23
2022-10-16T16:59:20.898Z,6.18
2022-10-16T17:01:49.988Z,6.13
2022-10-16T17:04:19.848Z,6.09
2022-10-16T17:06:46.614Z,6.04
2022-10-16T17:09:16.644Z,5.98
2022-10-16T17:11:45.744Z,5.93
2022-10-16T17:14:12.944Z,5.88
2022-10-16T17:16:39.882Z,5.83
2022-10-16T17:19:08.989Z,5.76
2022-10-16T17:21:40.925Z,5.70
2022-10-16T17:24:08.057Z,5.64
2022-10-16T17:26:38.253Z,5.57
2022-10-16T17:29:05.290Z,5.49
2022-10-16T17:31:34.428Z,5.42
2022-10-16T17:34:02.074Z,5.35
2022-10-16T17:36:31.081Z,5.28
2022-10-16T17:39:04.677Z,5.26
2022-10-16T17:41:31.667Z,5.22
2022-10-16T17:43:58.388Z,5.15
2022-10-16T17:46:25.116Z,5.09
2022-10-16T17:48:54.647Z,5.04
2022-10-16T17:51:23.579Z,4.99
2022-10-16T17:53:51.689Z,4.93
2022-10-16T17:56:18.648Z,4.86
2022-10-16T17:58:51.392Z,4.80
2022-10-16T18:01:25.946Z,4.75
2022-10-16T18:03:57.563Z,4.70
2022-10-16T18:06:24.542Z,4.67
2022-10-16T18:08:52.345Z,4.65
2022-10-16T18:11:19.877Z,4.62
2022-10-16T18:13:46.720Z,4.59
2022-10-16T18:16:13.900Z,4.53
2022-10-16T18:18:41.222Z,4.48
2022-10-16T18:21:09.765Z,4.45
2022-10-16T18:23:36.611Z,4.42
2022-10-16T18:26:04.895Z,4.41
2022-10-16T18:28:32.574Z,4.38
2022-10-16T18:31:01.732Z,4.36
2022-10-16T18:33:31.316Z,4.30
2022-10-16T18:36:03.540Z,4.24
2022-10-16T18:38:32.726Z,4.17
2022-10-16T18:41:06.150Z,4.12
2022-10-16T18:43:37.581Z,4.09
2022-10-16T18:46:12.051Z,4.05
2022-10-16T18:48:39.855Z,4.01
2022-10-16T18:51:15.474Z,3.98
2022-10-16T18:53:45.151Z,3.96
2022-10-16T18:56:13.577Z,3.94
2022-10-16T18:58:41.900Z,3.91
2022-10-16T19:01:10.945Z,3.88
2022-10-16T19:03:43.548Z,3.87
2022-10-16T19:06:12.855Z,3.84
2022-10-16T19:08:40.099Z,3.82
2022-10-16T19:11:09.556Z,3.80
2022-10-16T19:13:37.170Z,3.77
2022-10-16T19:16:19.261Z,3.75
2022-10-16T19:18:48.230Z,3.73
2022-10-16T19:21:16.056Z,3.69
2022-10-16T19:23:44.448Z,3.63
2022-10-16T19:26:13.290Z,3.59
2022-10-16T19:28:40.856Z,3.54
2022-10-16T19:31:12.700Z,3.50
2022-10-16T19:33:39.873Z,3.46
2022-10-16T19:36:17.556Z,3.42
2022-10-16T19:38:44.803Z,3.38
2022-10-16T19:41:13.798Z,3.31
2022-10-16T19:43:43.984Z,3.27
2022-10-16T19:46:13.203Z,3.23
2022-10-16T19:48:41.008Z,3.23
2022-10-16T19:51:09.205Z,3.23
2022-10-16T19:53:36.283Z,3.22
2022-10-16T19:56:11.831Z,3.20
2022-10-16T19:58:38.666Z,3.18
2022-10-16T20:01:05.494Z,3.17
2022-10-16T20:03:32.253Z,3.17
2022-10-16T20:06:00.416Z,3.18
2022-10-16T20:08:27.042Z,3.17
2022-10-16T20:10:54.588Z,3.15
2022-10-16T20:13:21.602Z,3.14
2022-10-16T20:15:48.582Z,3.10
2022-10-16T20:18:15.810Z,3.06
2022-10-16T20:20:43.951Z,3.01
2022-10-16T20:23:11.044Z,2.96
2022-10-16T20:25:38.639Z,2.92
2022-10-16T20:28:05.661Z,2.87
2022-10-16T20:30:36.119Z,2.84
2022-10-16T20:33:02.793Z,2.83
2022-10-16T20:35:29.623Z,2.79
2022-10-16T20:37:56.449Z,2.75
2022-10-16T20:40:23.127Z,2.73
2022-10-16T20:42:49.780Z,2.69
2022-10-16T20:45:16.492Z,2.67
2022-10-16T20:47:43.127Z,2.64
2022-10-16T20:50:09.905Z,2.60
2022-10-16T20:52:36.652Z,2.57
2022-10-16T20:55:04.419Z,2.55
2022-10-16T20:57:31.136Z,2.53
2022-10-16T20:59:57.817Z,2.52
2022-10-16T21:02:24.520Z,2.50
2022-10-16T21:04:51.250Z,2.48
2022-10-16T21:07:17.885Z,2.46
2022-10-16T21:09:44.657Z,2.42
2022-10-16T21:12:11.330Z,2.39
2022-10-16T21:14:42.285Z,2.39
2022-10-16T21:17:12.985Z,2.39
2022-10-16T21:19:39.649Z,2.38
2022-10-16T21:22:06.307Z,2.35
2022-10-16T21:24:32.948Z,2.33
2022-10-16T21:26:59.608Z,2.31
2022-10-16T21:29:26.393Z,2.30
2022-10-16T21:31:53.089Z,2.28
2022-10-16T21:34:19.704Z,2.27
2022-10-16T21:36:46.360Z,2.23
2022-10-16T21:39:14.736Z,2.20
2022-10-16T21:41:41.887Z,2.18
2022-10-16T21:44:08.601Z,2.14
2022-10-16T21:46:36.544Z,2.11
2022-10-16T21:49:05.873Z,2.06
2022-10-16T21:51:37.248Z,2.04
2022-10-16T21:54:05.531Z,2.02
2022-10-16T21:56:32.274Z,2.01
2022-10-16T21:58:59.044Z,2.01
2022-10-16T22:01:26.634Z,2.00
2022-10-16T22:03:53.792Z,1.98
2022-10-16T22:08:55.225Z,1.98
2022-10-16T22:11:24.022Z,1.98
2022-10-16T22:13:54.177Z,1.99
2022-10-16T22:16:24.752Z,1.99
2022-10-16T22:18:52.615Z,1.98
2022-10-16T22:21:19.266Z,1.95
2022-10-16T22:23:46.320Z,1.92
2022-10-16T22:26:13.045Z,1.90
2022-10-16T22:28:40.066Z,1.88
2022-10-16T22:31:09.285Z,1.86
2022-10-16T22:33:36.038Z,1.85
2022-10-16T22:36:03.759Z,1.84
2022-10-16T22:38:31.211Z,1.82
2022-10-16T22:41:05.115Z,1.81
2022-10-16T22:45:17.413Z,1.79
2022-10-16T22:47:44.078Z,1.76
2022-10-16T22:50:10.760Z,1.73
2022-10-16T22:52:39.263Z,1.68
2022-10-16T22:55:06.096Z,1.59
2022-10-16T22:57:32.753Z,1.52
2022-10-16T22:59:59.377Z,1.47
2022-10-16T23:02:26.310Z,1.41
2022-10-16T23:04:53.143Z,1.35
2022-10-16T23:07:19.744Z,1.34
2022-10-16T23:09:46.373Z,1.34
2022-10-16T23:12:13.035Z,1.36
2022-10-16T23:14:39.975Z,1.38
2022-10-16T23:17:06.597Z,1.38
2022-10-16T23:19:33.292Z,1.39
2022-10-16T23:21:59.909Z,1.38
2022-10-16T23:24:26.569Z,1.36
2022-10-16T23:26:53.317Z,1.35
2022-10-16T23:29:19.938Z,1.34
2022-10-16T23:31:46.558Z,1.33
2022-10-16T23:34:13.256Z,1.31
2022-10-16T23:36:39.903Z,1.32
2022-10-16T23:39:06.529Z,1.32
2022-10-16T23:41:33.184Z,1.31
2022-10-16T23:43:59.850Z,1.32
2022-10-16T23:46:26.557Z,1.31
2022-10-16T23:48:53.205Z,1.31
2022-10-16T23:51:19.855Z,1.29
2022-10-16T23:53:46.532Z,1.26
2022-10-16T23:56:13.418Z,1.25
2022-10-16T23:58:40.860Z,1.23
